createdAt,value
2022-08-31T00:00:09.679Z,22.90
2022-08-31T00:02:55.175Z,23.00
2022-08-31T00:05:24.717Z,23.10
2022-08-31T00:07:52.908Z,22.90
2022-08-31T00:10:32.252Z,23.00
2022-08-31T00:13:02.010Z,23.00
2022-08-31T00:15:31.546Z,22.90
2022-08-31T00:18:00.044Z,22.80
2022-08-31T00:20:33.765Z,23.00
2022-08-31T00:23:03.599Z,23.00
2022-08-31T00:25:31.875Z,23.00
2022-08-31T00:27:59.732Z,23.00
2022-08-31T00:30:27.868Z,23.00
2022-08-31T00:32:58.195Z,23.00
2022-08-31T00:35:26.491Z,23.00
2022-08-31T00:37:55.940Z,23.00
2022-08-31T00:40:25.534Z,23.00
2022-08-31T00:42:53.323Z,23.00
2022-08-31T00:45:21.848Z,22.90
2022-08-31T00:47:49.975Z,23.00
2022-08-31T00:50:19.238Z,23.00
2022-08-31T00:52:51.709Z,22.80
2022-08-31T00:55:24.281Z,22.80
2022-08-31T00:57:55.602Z,22.70
2022-08-31T01:00:26.172Z,22.80
2022-08-31T01:02:54.933Z,22.90
2022-08-31T01:05:22.865Z,22.90
2022-08-31T01:07:51.510Z,22.90
2022-08-31T01:10:22.920Z,23.00
2022-08-31T01:12:53.410Z,22.90
2022-08-31T01:15:21.884Z,23.00
2022-08-31T01:17:51.857Z,23.00
2022-08-31T01:20:26.801Z,23.00
2022-08-31T01:23:10.633Z,23.00
2022-08-31T01:25:41.358Z,22.90
2022-08-31T01:28:10.415Z,22.90
2022-08-31T01:30:40.010Z,23.00
2022-08-31T01:33:09.175Z,22.90
2022-08-31T01:35:37.360Z,22.80
2022-08-31T01:38:06.460Z,22.90
2022-08-31T01:40:36.636Z,22.90
2022-08-31T01:43:04.671Z,22.80
2022-08-31T01:45:32.729Z,22.80
2022-08-31T01:48:02.001Z,22.90
2022-08-31T01:50:30.354Z,22.90
2022-08-31T01:52:58.991Z,22.90
2022-08-31T01:55:28.181Z,22.90
2022-08-31T01:57:58.137Z,23.00
2022-08-31T02:00:50.452Z,23.00
2022-08-31T02:03:18.455Z,22.90
2022-08-31T02:05:46.311Z,22.80
2022-08-31T02:08:14.382Z,22.70
2022-08-31T02:10:44.230Z,22.70
2022-08-31T02:13:12.934Z,22.70
2022-08-31T02:15:40.872Z,22.80
2022-08-31T02:18:09.439Z,22.80
2022-08-31T02:20:40.308Z,22.90
2022-08-31T02:23:08.188Z,22.90
2022-08-31T02:25:36.309Z,23.00
2022-08-31T02:28:06.129Z,22.90
2022-08-31T02:30:34.162Z,22.90
2022-08-31T02:33:02.719Z,22.80
2022-08-31T02:35:30.746Z,22.90
2022-08-31T02:37:58.519Z,22.90
2022-08-31T02:40:26.489Z,22.90
2022-08-31T02:42:55.152Z,22.80
2022-08-31T02:45:27.647Z,22.80
2022-08-31T02:48:01.922Z,22.90
2022-08-31T02:50:39.593Z,22.80
2022-08-31T02:53:07.557Z,22.90
2022-08-31T02:55:35.888Z,22.90
2022-08-31T02:58:04.858Z,23.00
2022-08-31T03:00:34.851Z,22.80
2022-08-31T03:03:03.152Z,22.90
2022-08-31T03:05:31.216Z,22.90
2022-08-31T03:07:59.334Z,22.90
2022-08-31T03:10:27.869Z,23.00
2022-08-31T03:12:56.253Z,23.00
2022-08-31T03:15:26.458Z,23.00
2022-08-31T03:17:55.662Z,22.90
2022-08-31T03:20:27.158Z,22.90
2022-08-31T03:22:55.268Z,23.00
2022-08-31T03:25:23.830Z,23.10
2022-08-31T03:27:51.796Z,23.10
2022-08-31T03:30:22.585Z,23.10
2022-08-31T03:33:03.001Z,23.10
2022-08-31T03:35:33.264Z,23.20
2022-08-31T03:38:02.476Z,23.10
2022-08-31T03:40:30.761Z,23.10
2022-08-31T03:42:58.959Z,23.20
2022-08-31T03:45:28.842Z,23.20
2022-08-31T03:47:57.129Z,23.10
2022-08-31T03:50:28.053Z,23.20
2022-08-31T03:53:04.461Z,23.10
2022-08-31T03:55:34.017Z,23.10
2022-08-31T03:58:02.052Z,23.20
2022-08-31T04:00:31.156Z,23.20
2022-08-31T04:03:08.563Z,23.20
2022-08-31T04:06:14.228Z,23.20
2022-08-31T04:09:00.652Z,23.20
2022-08-31T04:11:47.406Z,23.10
2022-08-31T04:14:42.117Z,23.10
2022-08-31T04:17:28.458Z,23.10
2022-08-31T04:20:15.713Z,23.20
2022-08-31T04:22:48.114Z,23.20
2022-08-31T04:25:30.965Z,23.10
2022-08-31T04:27:59.233Z,23.10
2022-08-31T04:30:27.727Z,23.20
2022-08-31T04:32:56.928Z,23.20
2022-08-31T04:35:25.213Z,23.10
2022-08-31T04:37:55.036Z,23.20
2022-08-31T04:40:26.116Z,23.10
2022-08-31T04:42:55.260Z,23.00
2022-08-31T04:45:25.354Z,23.00
2022-08-31T04:47:54.004Z,23.10
2022-08-31T04:50:22.539Z,23.10
2022-08-31T04:53:09.404Z,23.00
2022-08-31T04:55:40.956Z,23.10
2022-08-31T04:58:09.899Z,23.00
2022-08-31T05:00:38.199Z,23.10
2022-08-31T05:03:32.520Z,23.20
2022-08-31T05:06:00.414Z,23.00
2022-08-31T05:08:30.305Z,23.20
2022-08-31T05:10:58.231Z,23.20
2022-08-31T05:13:27.472Z,23.20
2022-08-31T05:15:55.981Z,23.10
2022-08-31T05:18:26.218Z,23.10
2022-08-31T05:20:57.565Z,23.10
2022-08-31T05:23:25.500Z,23.00
2022-08-31T05:25:54.711Z,23.00
2022-08-31T05:28:23.355Z,23.10
2022-08-31T05:30:51.354Z,23.10
2022-08-31T05:33:31.398Z,23.00
2022-08-31T05:36:02.278Z,23.00
2022-08-31T05:38:30.301Z,23.00
2022-08-31T05:40:59.644Z,22.90
2022-08-31T05:43:28.634Z,22.90
2022-08-31T05:45:56.662Z,23.00
2022-08-31T05:48:28.542Z,23.10
2022-08-31T05:51:01.964Z,23.10
2022-08-31T05:53:30.232Z,23.00
2022-08-31T05:56:06.805Z,23.00
2022-08-31T05:58:35.241Z,22.90
2022-08-31T06:01:03.048Z,23.00
2022-08-31T06:03:55.006Z,22.90
2022-08-31T06:06:22.864Z,22.80
2022-08-31T06:08:51.782Z,22.50
2022-08-31T06:11:23.461Z,22.40
2022-08-31T06:13:56.109Z,22.20
2022-08-31T06:16:24.846Z,22.40
2022-08-31T06:18:55.549Z,22.30
2022-08-31T06:21:25.304Z,22.30
2022-08-31T06:23:55.810Z,22.40
2022-08-31T06:26:27.313Z,22.40
2022-08-31T06:28:58.967Z,22.20
2022-08-31T06:31:31.439Z,22.30
2022-08-31T06:34:00.241Z,22.50
2022-08-31T06:36:43.377Z,22.40
2022-08-31T06:39:22.079Z,22.50
2022-08-31T06:42:14.428Z,22.40
2022-08-31T06:44:54.193Z,22.00
2022-08-31T06:47:26.063Z,22.00
2022-08-31T06:49:54.663Z,22.10
2022-08-31T06:52:22.792Z,22.20
2022-08-31T06:55:07.217Z,22.10
2022-08-31T06:57:55.084Z,22.10
2022-08-31T07:00:42.805Z,22.10
2022-08-31T07:03:33.072Z,21.90
2022-08-31T07:06:07.011Z,21.70
2022-08-31T07:08:35.278Z,22.00
2022-08-31T07:11:04.068Z,22.40
2022-08-31T07:13:33.341Z,22.20
2022-08-31T07:16:05.734Z,22.10
2022-08-31T07:18:33.756Z,22.30
2022-08-31T07:21:13.136Z,22.40
2022-08-31T07:23:41.953Z,22.20
2022-08-31T07:26:16.492Z,22.20
2022-08-31T07:28:52.747Z,22.40
2022-08-31T07:31:23.657Z,22.60
2022-08-31T07:33:55.938Z,22.80
2022-08-31T07:36:26.365Z,22.90
2022-08-31T07:39:14.947Z,22.90
2022-08-31T07:42:04.094Z,22.80
2022-08-31T07:44:34.458Z,22.70
2022-08-31T07:47:03.602Z,22.60
2022-08-31T07:49:31.460Z,22.60
2022-08-31T07:52:29.003Z,22.50
2022-08-31T07:55:07.649Z,22.60
2022-08-31T07:57:53.224Z,22.70
2022-08-31T08:00:25.054Z,23.00
2022-08-31T08:02:54.073Z,23.00
2022-08-31T08:05:28.951Z,23.00
2022-08-31T08:08:22.710Z,23.10
2022-08-31T08:11:06.578Z,23.10
2022-08-31T08:13:59.908Z,23.20
2022-08-31T08:16:40.595Z,23.60
2022-08-31T08:19:31.313Z,23.60
2022-08-31T08:21:59.825Z,23.70
2022-08-31T08:24:32.885Z,24.10
2022-08-31T08:27:03.646Z,24.00
2022-08-31T08:29:56.034Z,24.20
2022-08-31T08:32:31.365Z,24.10
2022-08-31T08:34:59.810Z,23.60
2022-08-31T08:37:54.286Z,23.50
2022-08-31T08:40:32.461Z,23.40
2022-08-31T08:43:02.834Z,23.30
2022-08-31T08:45:31.491Z,23.40
2022-08-31T08:48:01.977Z,23.30
2022-08-31T08:50:32.130Z,23.10
2022-08-31T08:53:03.629Z,23.20
2022-08-31T08:55:36.786Z,23.20
2022-08-31T08:58:07.866Z,23.30
2022-08-31T09:00:46.312Z,23.40
2022-08-31T09:03:24.219Z,23.40
2022-08-31T09:06:27.073Z,23.40
2022-08-31T09:09:20.948Z,23.40
2022-08-31T09:12:14.843Z,23.30
2022-08-31T09:14:58.153Z,23.40
2022-08-31T09:17:39.766Z,23.40
2022-08-31T09:20:12.059Z,23.30
2022-08-31T09:22:46.833Z,23.30
2022-08-31T09:25:18.941Z,23.40
2022-08-31T09:28:07.780Z,23.40
2022-08-31T09:30:50.607Z,23.50
2022-08-31T09:33:20.347Z,23.50
2022-08-31T09:35:55.601Z,23.50
2022-08-31T09:38:31.387Z,23.60
2022-08-31T09:41:00.102Z,23.50
2022-08-31T09:43:36.139Z,23.50
2022-08-31T09:46:08.115Z,23.50
2022-08-31T09:48:51.814Z,23.50
2022-08-31T09:51:28.038Z,23.60
2022-08-31T09:54:17.473Z,23.70
2022-08-31T09:56:55.963Z,23.70
2022-08-31T09:59:33.969Z,23.80
2022-08-31T10:02:02.599Z,23.90
2022-08-31T10:04:38.060Z,23.80
2022-08-31T10:07:15.817Z,23.80
2022-08-31T10:09:47.771Z,23.80
2022-08-31T10:12:22.280Z,23.80
2022-08-31T10:14:54.616Z,23.80
2022-08-31T10:17:31.930Z,23.80
2022-08-31T10:20:07.394Z,23.90
2022-08-31T10:22:41.974Z,23.80
2022-08-31T10:25:18.195Z,23.80
2022-08-31T10:27:49.688Z,23.70
2022-08-31T10:30:24.888Z,23.80
2022-08-31T10:32:59.978Z,23.70
2022-08-31T10:35:36.221Z,23.80
2022-08-31T10:38:19.963Z,23.80
2022-08-31T10:40:51.929Z,23.90
2022-08-31T10:43:22.290Z,23.90
2022-08-31T10:45:52.890Z,24.00
2022-08-31T10:48:23.376Z,24.00
2022-08-31T10:50:57.576Z,24.00
2022-08-31T10:53:43.442Z,23.90
2022-08-31T10:56:17.174Z,23.90
2022-08-31T10:58:55.272Z,23.80
2022-08-31T11:01:29.725Z,23.80
2022-08-31T11:04:30.356Z,23.90
2022-08-31T11:07:07.834Z,23.90
2022-08-31T11:09:42.797Z,23.80
2022-08-31T11:12:13.485Z,23.80
2022-08-31T11:15:09.607Z,23.80
2022-08-31T11:17:53.973Z,23.80
2022-08-31T11:20:40.969Z,23.90
2022-08-31T11:23:27.852Z,23.90
2022-08-31T11:26:34.792Z,23.90
2022-08-31T11:29:09.962Z,24.00
2022-08-31T11:31:38.894Z,24.10
2022-08-31T11:34:17.035Z,24.00
2022-08-31T11:36:50.840Z,23.90
2022-08-31T11:39:40.109Z,23.80
2022-08-31T11:42:34.207Z,23.90
2022-08-31T11:45:11.852Z,23.80
2022-08-31T11:47:44.114Z,23.80
2022-08-31T11:50:53.731Z,23.90
2022-08-31T11:53:28.889Z,24.00
2022-08-31T11:56:00.373Z,24.10
2022-08-31T11:58:33.692Z,24.10
2022-08-31T12:01:27.145Z,24.10
2022-08-31T12:04:03.164Z,24.10
2022-08-31T12:07:08.052Z,24.10
2022-08-31T12:09:58.605Z,24.10
2022-08-31T12:13:07.385Z,24.00
2022-08-31T12:15:51.326Z,23.90
2022-08-31T12:18:32.416Z,23.90
2022-08-31T12:21:28.031Z,24.00
2022-08-31T12:24:05.958Z,24.00
2022-08-31T12:26:45.069Z,23.90
2022-08-31T12:29:23.169Z,23.90
2022-08-31T12:32:13.137Z,23.80
2022-08-31T12:34:46.752Z,23.90
2022-08-31T12:37:23.747Z,23.90
2022-08-31T12:40:11.185Z,23.90
2022-08-31T12:42:43.854Z,23.90
2022-08-31T12:45:15.704Z,23.90
2022-08-31T12:47:54.006Z,23.90
2022-08-31T12:50:27.485Z,23.90
2022-08-31T12:53:29.421Z,23.90
2022-08-31T12:56:02.668Z,23.90
2022-08-31T12:58:55.532Z,23.80
2022-08-31T13:01:25.630Z,23.80
2022-08-31T13:03:59.274Z,23.70
2022-08-31T13:06:29.513Z,23.60
2022-08-31T13:08:58.893Z,23.60
2022-08-31T13:11:35.276Z,23.50
2022-08-31T13:14:11.872Z,23.50
2022-08-31T13:16:41.915Z,23.60
2022-08-31T13:19:19.289Z,23.50
2022-08-31T13:21:51.409Z,23.50
2022-08-31T13:24:28.867Z,23.50
2022-08-31T13:27:18.257Z,23.40
2022-08-31T13:29:46.951Z,23.50
2022-08-31T13:32:31.556Z,23.50
2022-08-31T13:35:04.164Z,23.50
2022-08-31T13:37:39.027Z,23.60
2022-08-31T13:40:10.700Z,23.60
2022-08-31T13:42:42.689Z,23.70
2022-08-31T13:45:29.058Z,23.70
2022-08-31T13:48:01.784Z,23.80
2022-08-31T13:50:47.708Z,23.80
2022-08-31T13:53:39.247Z,23.90
2022-08-31T13:56:39.317Z,23.90
2022-08-31T13:59:26.367Z,24.10
2022-08-31T14:01:56.639Z,24.10
2022-08-31T14:04:43.215Z,24.10
2022-08-31T14:07:16.957Z,24.20
2022-08-31T14:09:45.852Z,24.10
2022-08-31T14:12:32.012Z,24.20
2022-08-31T14:15:01.038Z,24.20
2022-08-31T14:17:29.325Z,24.20
2022-08-31T14:19:57.358Z,24.20
2022-08-31T14:22:30.358Z,24.10
2022-08-31T14:25:00.535Z,24.20
2022-08-31T14:27:29.103Z,24.20
2022-08-31T14:29:58.159Z,24.20
2022-08-31T14:32:28.980Z,24.20
2022-08-31T14:34:57.805Z,24.20
2022-08-31T14:37:29.918Z,24.20
2022-08-31T14:40:06.910Z,24.20
2022-08-31T14:42:38.244Z,24.20
2022-08-31T14:45:09.244Z,24.20
2022-08-31T14:47:43.693Z,24.20
2022-08-31T14:50:13.998Z,24.20
2022-08-31T14:52:44.293Z,24.30
2022-08-31T14:55:14.936Z,24.30
2022-08-31T14:57:45.738Z,24.20
2022-08-31T15:00:22.891Z,24.20
2022-08-31T15:02:53.262Z,24.20
2022-08-31T15:05:23.766Z,24.20
2022-08-31T15:07:52.947Z,24.20
2022-08-31T15:10:24.214Z,24.20
2022-08-31T15:12:52.455Z,24.30
2022-08-31T15:15:20.945Z,24.30
2022-08-31T15:17:51.171Z,24.30
2022-08-31T15:20:21.403Z,24.30
2022-08-31T15:22:49.316Z,24.30
2022-08-31T15:25:18.659Z,24.30
2022-08-31T15:27:48.292Z,24.30
2022-08-31T15:30:18.724Z,24.30
2022-08-31T15:32:47.870Z,24.30
2022-08-31T15:35:19.980Z,24.30
2022-08-31T15:37:52.869Z,24.40
2022-08-31T15:40:22.172Z,24.50
2022-08-31T15:42:53.925Z,24.50
2022-08-31T15:45:23.088Z,24.40
2022-08-31T15:48:08.689Z,24.40
2022-08-31T15:50:36.851Z,24.40
2022-08-31T15:53:09.862Z,24.30
2022-08-31T15:55:40.605Z,24.30
2022-08-31T15:58:10.910Z,24.30
2022-08-31T16:00:41.915Z,24.30
2022-08-31T16:03:10.533Z,24.30
2022-08-31T16:05:39.199Z,24.30
2022-08-31T16:08:10.913Z,24.40
2022-08-31T16:10:39.533Z,24.40
2022-08-31T16:13:09.421Z,24.40
2022-08-31T16:15:39.218Z,24.40
2022-08-31T16:18:07.459Z,24.30
2022-08-31T16:20:36.191Z,24.20
2022-08-31T16:23:07.029Z,24.30
2022-08-31T16:25:48.526Z,24.30
2022-08-31T16:28:18.623Z,24.30
2022-08-31T16:30:48.135Z,24.30
2022-08-31T16:33:16.159Z,24.30
2022-08-31T16:35:45.747Z,24.20
2022-08-31T16:38:13.786Z,24.20
2022-08-31T16:40:42.575Z,24.20
2022-08-31T16:43:10.878Z,24.20
2022-08-31T16:45:39.545Z,24.20
2022-08-31T16:48:23.160Z,24.20
2022-08-31T16:50:51.188Z,24.10
2022-08-31T16:53:19.126Z,24.10
2022-08-31T16:55:48.364Z,24.20
2022-08-31T16:58:34.583Z,24.20
2022-08-31T17:01:04.946Z,24.20
2022-08-31T17:03:34.460Z,24.20
2022-08-31T17:06:02.420Z,24.20
2022-08-31T17:08:31.254Z,24.20
2022-08-31T17:11:03.134Z,24.10
2022-08-31T17:13:33.325Z,24.10
2022-08-31T17:16:02.689Z,24.10
2022-08-31T17:18:30.654Z,24.10
2022-08-31T17:21:00.437Z,24.10
2022-08-31T17:23:28.675Z,24.20
2022-08-31T17:25:56.638Z,24.10
2022-08-31T17:28:25.954Z,24.20
2022-08-31T17:30:53.875Z,24.20
2022-08-31T17:33:23.245Z,24.10
2022-08-31T17:35:52.038Z,24.20
2022-08-31T17:38:21.491Z,24.10
2022-08-31T17:40:49.659Z,24.10
2022-08-31T17:43:20.037Z,24.10
2022-08-31T17:45:49.305Z,24.10
2022-08-31T17:48:17.697Z,24.10
2022-08-31T17:50:49.072Z,24.10
2022-08-31T17:53:17.030Z,23.50
2022-08-31T17:55:54.670Z,23.20
2022-08-31T17:58:22.921Z,23.20
2022-08-31T18:00:52.336Z,23.10
2022-08-31T18:03:20.294Z,23.00
2022-08-31T18:05:49.311Z,22.90
2022-08-31T18:08:17.786Z,23.00
2022-08-31T18:10:53.084Z,22.90
2022-08-31T18:13:21.840Z,23.00
2022-08-31T18:15:52.562Z,22.90
2022-08-31T18:18:20.841Z,22.90
2022-08-31T18:20:48.992Z,22.70
2022-08-31T18:23:16.972Z,22.70
2022-08-31T18:25:45.880Z,22.70
2022-08-31T18:28:17.863Z,22.80
2022-08-31T18:30:46.745Z,22.80
2022-08-31T18:33:15.171Z,22.80
2022-08-31T18:35:46.384Z,22.80
2022-08-31T18:38:14.437Z,22.80
2022-08-31T18:41:00.174Z,22.70
2022-08-31T18:43:46.905Z,22.70
2022-08-31T18:46:14.839Z,22.70
2022-08-31T18:48:51.052Z,22.60
2022-08-31T18:51:26.291Z,22.50
2022-08-31T18:53:57.054Z,22.40
2022-08-31T18:56:29.087Z,22.40
2022-08-31T18:58:59.521Z,22.40
2022-08-31T19:01:33.460Z,22.40
2022-08-31T19:04:02.840Z,22.50
2022-08-31T19:06:31.275Z,22.70
2022-08-31T19:09:00.193Z,22.70
2022-08-31T19:11:29.925Z,22.60
2022-08-31T19:14:00.307Z,22.80
2022-08-31T19:16:30.259Z,22.60
2022-08-31T19:18:59.040Z,22.30
2022-08-31T19:21:29.355Z,22.40
2022-08-31T19:24:00.165Z,22.40
2022-08-31T19:26:31.530Z,22.50
2022-08-31T19:29:03.321Z,22.50
2022-08-31T19:31:31.767Z,22.50
2022-08-31T19:34:00.155Z,22.60
2022-08-31T19:36:28.872Z,22.60
2022-08-31T19:38:57.761Z,22.50
2022-08-31T19:41:27.300Z,22.50
2022-08-31T19:44:07.261Z,22.50
2022-08-31T19:46:39.383Z,22.50
2022-08-31T19:49:11.244Z,22.50
2022-08-31T19:51:40.926Z,22.40
2022-08-31T19:54:12.303Z,22.20
2022-08-31T19:56:46.213Z,22.30
2022-08-31T19:59:20.404Z,22.50
2022-08-31T20:01:53.298Z,22.50
2022-08-31T20:04:23.471Z,22.40
2022-08-31T20:06:52.197Z,22.30
2022-08-31T20:09:22.651Z,22.40
2022-08-31T20:11:52.701Z,22.20
2022-08-31T20:14:22.105Z,22.10
2022-08-31T20:16:52.233Z,22.10
2022-08-31T20:19:24.899Z,22.10
2022-08-31T20:21:54.302Z,22.00
2022-08-31T20:24:25.461Z,21.90
2022-08-31T20:27:00.919Z,22.00
2022-08-31T20:29:30.410Z,22.20
2022-08-31T20:32:02.970Z,22.10
2022-08-31T20:34:31.023Z,22.00
2022-08-31T20:37:01.234Z,22.10
2022-08-31T20:39:31.603Z,21.90
2022-08-31T20:42:03.263Z,22.00
2022-08-31T20:44:34.756Z,21.90
2022-08-31T20:47:23.539Z,21.90
2022-08-31T20:49:54.455Z,21.70
2022-08-31T20:52:24.192Z,21.50
2022-08-31T20:55:01.969Z,21.40
2022-08-31T20:57:31.685Z,21.40
2022-08-31T21:00:00.865Z,21.00
2022-08-31T21:02:31.590Z,20.80
2022-08-31T21:05:15.158Z,20.70
2022-08-31T21:07:44.084Z,20.50
2022-08-31T21:10:12.189Z,20.70
2022-08-31T21:12:40.104Z,20.50
2022-08-31T21:15:11.276Z,20.70
2022-08-31T21:17:41.438Z,20.50
2022-08-31T21:20:10.898Z,20.60
2022-08-31T21:22:39.053Z,20.50
2022-08-31T21:25:12.452Z,20.40
2022-08-31T21:27:41.010Z,20.30
2022-08-31T21:30:11.382Z,20.10
2022-08-31T21:32:41.075Z,20.00
2022-08-31T21:35:10.088Z,20.10
2022-08-31T21:37:38.216Z,20.50
2022-08-31T21:40:07.105Z,20.40
2022-08-31T21:42:35.050Z,20.30
2022-08-31T21:45:02.855Z,20.50
2022-08-31T21:47:31.023Z,20.20
2022-08-31T21:50:00.252Z,20.10
2022-08-31T21:52:28.121Z,20.00
2022-08-31T21:54:55.885Z,19.80
2022-08-31T21:57:24.011Z,19.80
2022-08-31T21:59:51.826Z,19.70
2022-08-31T22:02:19.652Z,19.70
2022-08-31T22:04:47.965Z,19.50
2022-08-31T22:07:17.214Z,19.50
2022-08-31T22:09:46.610Z,19.40
2022-08-31T22:12:14.864Z,19.40
2022-08-31T22:14:44.536Z,19.60
2022-08-31T22:17:12.994Z,19.10
2022-08-31T22:19:42.903Z,19.00
2022-08-31T22:22:13.111Z,18.80
2022-08-31T22:24:42.991Z,18.60
2022-08-31T22:27:12.877Z,18.50
2022-08-31T22:29:41.954Z,18.70
2022-08-31T22:32:12.492Z,18.50
2022-08-31T22:34:41.938Z,18.60
2022-08-31T22:37:11.101Z,18.60
2022-08-31T22:39:42.625Z,18.80
2022-08-31T22:42:11.766Z,18.60
2022-08-31T22:44:42.282Z,18.90
2022-08-31T22:47:10.256Z,18.80
2022-08-31T22:49:38.538Z,18.80
2022-08-31T22:52:07.216Z,18.90
2022-08-31T22:54:35.529Z,19.00
2022-08-31T22:57:04.947Z,19.10
2022-08-31T22:59:32.834Z,19.00
2022-08-31T23:02:03.144Z,18.90
2022-08-31T23:04:34.131Z,18.90
2022-08-31T23:07:03.475Z,19.10
2022-08-31T23:09:33.593Z,19.40
2022-08-31T23:12:05.337Z,19.30
2022-08-31T23:14:33.414Z,19.00
2022-08-31T23:17:03.835Z,19.20
2022-08-31T23:19:36.543Z,19.30
2022-08-31T23:22:07.477Z,19.60
2022-08-31T23:24:37.906Z,19.50
2022-08-31T23:27:09.150Z,19.20
2022-08-31T23:29:40.840Z,19.00
2022-08-31T23:32:11.962Z,19.00
2022-08-31T23:34:41.527Z,19.30
2022-08-31T23:37:10.270Z,19.00
2022-08-31T23:39:39.530Z,18.80
2022-08-31T23:42:11.903Z,19.00
2022-08-31T23:44:43.302Z,19.00
2022-08-31T23:47:13.556Z,19.20
2022-08-31T23:49:42.545Z,19.30
2022-08-31T23:52:11.898Z,19.30
2022-08-31T23:54:40.173Z,19.30
2022-08-31T23:57:31.198Z,19.30
